createdAt,value
2024-02-02T00:02:59.007Z,100.00
2024-02-02T00:08:02.686Z,100.00
2024-02-02T00:13:12.889Z,100.00
2024-02-02T00:18:21.498Z,100.00
2024-02-02T00:23:27.865Z,100.00
2024-02-02T00:28:33.477Z,100.00
2024-02-02T00:33:44.422Z,100.00
2024-02-02T00:38:51.582Z,100.00
2024-02-02T00:44:00.583Z,100.00
2024-02-02T00:49:06.388Z,100.00
2024-02-02T00:54:09.710Z,100.00
2024-02-02T00:59:16.879Z,100.00
2024-02-02T01:04:20.198Z,100.00
2024-02-02T01:09:28.732Z,100.00
2024-02-02T01:14:37.532Z,100.00
2024-02-02T01:19:49.666Z,100.00
2024-02-02T01:24:52.761Z,100.00
2024-02-02T01:29:58.780Z,100.00
2024-02-02T01:35:01.881Z,100.00
2024-02-02T01:40:05.575Z,100.00
2024-02-02T01:45:17.136Z,100.00
2024-02-02T01:50:23.832Z,100.00
2024-02-02T01:55:27.473Z,100.00
2024-02-02T02:00:33.635Z,100.00
2024-02-02T02:05:37.719Z,100.00
2024-02-02T02:10:41.209Z,100.00
2024-02-02T02:15:49.130Z,100.00
2024-02-02T02:20:55.990Z,100.00
2024-02-02T02:26:12.005Z,100.00
2024-02-02T02:31:19.694Z,100.00
2024-02-02T02:36:28.043Z,100.00
2024-02-02T02:41:33.205Z,100.00
2024-02-02T02:46:41.673Z,100.00
2024-02-02T02:51:54.401Z,100.00
2024-02-02T02:57:06.534Z,100.00
2024-02-02T03:02:09.679Z,100.00
2024-02-02T03:07:13.708Z,100.00
2024-02-02T03:12:18.908Z,100.00
2024-02-02T03:17:22.324Z,100.00
2024-02-02T03:22:28.395Z,100.00
2024-02-02T03:27:34.035Z,100.00
2024-02-02T03:32:37.514Z,100.00
2024-02-02T03:37:43.849Z,100.00
2024-02-02T03:42:52.816Z,100.00
2024-02-02T03:48:08.667Z,100.00
2024-02-02T03:53:13.847Z,100.00
2024-02-02T03:58:18.117Z,100.00
2024-02-02T04:03:29.075Z,100.00
2024-02-02T04:08:33.826Z,100.00
2024-02-02T04:13:38.610Z,100.00
2024-02-02T04:18:51.742Z,100.00
2024-02-02T04:23:58.591Z,100.00
2024-02-02T04:29:03.009Z,100.00
2024-02-02T04:34:10.355Z,100.00
2024-02-02T04:39:17.150Z,100.00
2024-02-02T04:44:34.543Z,100.00
2024-02-02T04:49:41.912Z,100.00
2024-02-02T04:54:51.152Z,100.00
2024-02-02T04:59:57.281Z,100.00
2024-02-02T05:05:02.771Z,100.00
2024-02-02T05:10:07.422Z,100.00
2024-02-02T05:15:20.640Z,100.00
2024-02-02T05:20:24.222Z,100.00
2024-02-02T05:25:32.693Z,100.00
2024-02-02T05:30:40.010Z,100.00
2024-02-02T05:35:58.752Z,100.00
2024-02-02T05:41:01.840Z,100.00
2024-02-02T05:46:09.075Z,100.00
2024-02-02T05:51:16.863Z,100.00
2024-02-02T05:56:21.015Z,100.00
2024-02-02T06:01:35.526Z,100.00
2024-02-02T06:06:43.903Z,100.00
2024-02-02T06:11:47.623Z,100.00
2024-02-02T06:16:51.040Z,100.00
2024-02-02T06:22:01.026Z,100.00
2024-02-02T06:27:26.365Z,100.00
2024-02-02T06:32:33.724Z,100.00
2024-02-02T06:37:40.863Z,100.00
2024-02-02T06:42:46.476Z,100.00
2024-02-02T06:47:51.979Z,100.00
2024-02-02T06:52:57.132Z,100.00
2024-02-02T06:58:07.296Z,100.00
2024-02-02T07:03:12.814Z,100.00
2024-02-02T07:08:19.715Z,100.00
2024-02-02T07:13:32.796Z,100.00
2024-02-02T07:18:40.200Z,100.00
2024-02-02T07:23:50.014Z,100.00
2024-02-02T07:29:04.330Z,100.00
2024-02-02T07:34:12.302Z,100.00
2024-02-02T07:39:18.994Z,100.00
2024-02-02T07:44:23.513Z,100.00
2024-02-02T07:49:29.604Z,100.00
2024-02-02T07:54:33.620Z,100.00
2024-02-02T07:59:48.456Z,100.00
2024-02-02T08:10:33.183Z,100.00
2024-02-02T08:15:40.733Z,100.00
2024-02-02T08:20:45.265Z,100.00
2024-02-02T08:25:51.495Z,100.00
2024-02-02T08:30:55.772Z,100.00
2024-02-02T08:36:10.769Z,100.00
2024-02-02T08:41:16.439Z,100.00
2024-02-02T08:46:34.135Z,100.00
2024-02-02T08:51:43.636Z,100.00
2024-02-02T08:57:01.628Z,100.00
2024-02-02T09:02:04.586Z,100.00
2024-02-02T09:07:10.957Z,100.00
2024-02-02T09:12:19.620Z,100.00
2024-02-02T09:17:22.499Z,100.00
2024-02-02T09:22:31.479Z,100.00
2024-02-02T09:27:34.742Z,100.00
2024-02-02T09:32:38.241Z,100.00
2024-02-02T09:37:51.884Z,100.00
2024-02-02T09:43:03.645Z,100.00
2024-02-02T09:48:07.603Z,100.00
2024-02-02T09:53:11.719Z,100.00
2024-02-02T09:58:23.708Z,100.00
2024-02-02T10:03:30.122Z,100.00
2024-02-02T10:08:37.527Z,100.00
2024-02-02T10:13:45.002Z,100.00
2024-02-02T10:18:51.446Z,100.00
2024-02-02T10:24:11.658Z,100.00
2024-02-02T10:29:20.550Z,100.00
2024-02-02T10:34:25.598Z,100.00
2024-02-02T10:39:32.556Z,100.00
2024-02-02T10:44:36.858Z,100.00
2024-02-02T10:49:41.923Z,100.00
2024-02-02T10:55:00.466Z,100.00
2024-02-02T11:00:11.318Z,100.00
2024-02-02T11:05:18.811Z,100.00
2024-02-02T11:10:26.823Z,100.00
2024-02-02T11:15:36.322Z,100.00
2024-02-02T11:20:49.181Z,100.00
2024-02-02T11:25:54.520Z,100.00
2024-02-02T11:31:02.878Z,100.00
2024-02-02T11:36:08.432Z,100.00
2024-02-02T11:41:14.145Z,100.00
2024-02-02T11:46:21.635Z,100.00
2024-02-02T11:51:25.014Z,100.00
2024-02-02T11:56:32.874Z,100.00
2024-02-02T12:01:36.847Z,100.00
2024-02-02T12:06:45.175Z,100.00
2024-02-02T12:11:54.539Z,100.00
2024-02-02T12:16:59.070Z,100.00
2024-02-02T12:22:13.665Z,100.00
2024-02-02T12:27:20.298Z,100.00
2024-02-02T12:32:24.194Z,100.00
2024-02-02T12:37:28.272Z,100.00
2024-02-02T12:42:41.948Z,100.00
2024-02-02T12:47:50.770Z,100.00
2024-02-02T12:52:55.622Z,100.00
2024-02-02T12:58:05.024Z,100.00
2024-02-02T13:03:10.896Z,100.00
2024-02-02T13:08:18.476Z,100.00
2024-02-02T13:13:31.939Z,100.00
2024-02-02T13:18:39.238Z,100.00
2024-02-02T13:23:45.744Z,100.00
2024-02-02T13:28:54.802Z,100.00
2024-02-02T13:33:59.929Z,100.00
2024-02-02T13:39:03.863Z,100.00
2024-02-02T13:44:19.558Z,100.00
2024-02-02T13:49:33.999Z,100.00
2024-02-02T13:54:38.152Z,100.00
2024-02-02T13:59:45.284Z,100.00
2024-02-02T14:04:49.762Z,100.00
2024-02-02T14:10:02.489Z,100.00
2024-02-02T14:15:06.628Z,100.00
2024-02-02T14:25:35.443Z,100.00
2024-02-02T14:30:47.339Z,100.00
2024-02-02T14:35:51.412Z,100.00
2024-02-02T14:40:56.311Z,100.00
2024-02-02T14:46:02.142Z,100.00
2024-02-02T14:51:05.806Z,100.00
2024-02-02T14:56:12.990Z,100.00
2024-02-02T15:01:17.198Z,100.00
2024-02-02T15:06:21.895Z,100.00
2024-02-02T15:11:32.992Z,100.00
2024-02-02T15:16:39.254Z,100.00
2024-02-02T15:22:03.740Z,100.00
2024-02-02T15:27:06.704Z,100.00
2024-02-02T15:32:12.766Z,100.00
2024-02-02T15:37:22.238Z,100.00
2024-02-02T15:47:52.028Z,100.00
2024-02-02T15:53:02.395Z,100.00
2024-02-02T15:58:09.512Z,100.00
2024-02-02T16:03:16.511Z,100.00
2024-02-02T16:08:28.121Z,100.00
2024-02-02T16:13:32.082Z,100.00
2024-02-02T16:18:40.317Z,100.00
2024-02-02T16:23:53.508Z,100.00
2024-02-02T16:28:58.391Z,100.00
2024-02-02T16:34:05.357Z,100.00
2024-02-02T16:39:13.651Z,100.00
2024-02-02T16:44:18.971Z,100.00
2024-02-02T16:49:23.152Z,100.00
2024-02-02T16:54:28.145Z,100.00
2024-02-02T16:59:34.023Z,100.00
2024-02-02T17:04:38.581Z,100.00
2024-02-02T17:09:49.282Z,100.00
2024-02-02T17:14:52.557Z,100.00
2024-02-02T17:19:55.565Z,100.00
2024-02-02T17:30:21.754Z,100.00
2024-02-02T17:35:37.429Z,100.00
2024-02-02T17:40:48.619Z,100.00
2024-02-02T17:45:53.014Z,100.00
2024-02-02T17:51:19.982Z,100.00
2024-02-02T17:56:23.783Z,100.00
2024-02-02T18:01:27.736Z,100.00
2024-02-02T18:06:40.761Z,100.00
2024-02-02T18:11:50.165Z,100.00
2024-02-02T18:16:56.038Z,100.00
2024-02-02T18:22:00.528Z,100.00
2024-02-02T18:27:05.879Z,100.00
2024-02-02T18:32:09.932Z,100.00
2024-02-02T18:37:14.106Z,100.00
2024-02-02T18:42:17.265Z,100.00
2024-02-02T18:47:22.178Z,100.00
2024-02-02T18:52:30.637Z,100.00
2024-02-02T18:57:34.000Z,100.00
2024-02-02T19:02:44.299Z,100.00
2024-02-02T19:07:49.280Z,100.00
2024-02-02T19:12:54.899Z,100.00
2024-02-02T19:18:03.945Z,100.00
2024-02-02T19:23:10.060Z,100.00
2024-02-02T19:28:20.214Z,100.00
2024-02-02T19:33:24.034Z,100.00
2024-02-02T19:38:38.306Z,100.00
2024-02-02T19:43:45.671Z,100.00
2024-02-02T19:48:51.863Z,100.00
2024-02-02T19:54:01.313Z,99.54
2024-02-02T19:59:04.837Z,92.30
2024-02-02T20:04:09.941Z,94.58
2024-02-02T20:09:24.399Z,93.36
2024-02-02T20:14:31.379Z,93.10
2024-02-02T20:19:40.731Z,97.91
2024-02-02T20:24:46.991Z,97.27
2024-02-02T20:29:52.251Z,96.85
2024-02-02T20:34:59.749Z,90.48
2024-02-02T20:40:06.775Z,94.78
2024-02-02T20:45:12.487Z,93.89
2024-02-02T20:50:18.621Z,97.81
2024-02-02T20:55:33.381Z,97.42
2024-02-02T21:00:35.995Z,98.13
2024-02-02T21:05:47.996Z,100.00
2024-02-02T21:10:53.377Z,100.00
2024-02-02T21:16:03.917Z,99.41
2024-02-02T21:21:09.126Z,99.03
2024-02-02T21:26:13.245Z,97.47
2024-02-02T21:31:18.808Z,98.36
2024-02-02T21:36:21.980Z,99.61
2024-02-02T21:41:26.432Z,96.93
2024-02-02T21:46:41.432Z,99.91
2024-02-02T21:51:55.831Z,98.11
2024-02-02T21:56:59.522Z,98.81
2024-02-02T22:02:02.588Z,96.33
2024-02-02T22:07:10.056Z,96.50
2024-02-02T22:12:14.289Z,90.92
2024-02-02T22:17:20.751Z,87.93
2024-02-02T22:22:23.301Z,88.41
2024-02-02T22:27:26.550Z,86.22
2024-02-02T22:32:29.919Z,88.04
2024-02-02T22:37:46.365Z,82.85
2024-02-02T22:42:52.073Z,80.86
2024-02-02T22:47:56.507Z,80.61
2024-02-02T22:53:00.312Z,76.66
2024-02-02T22:58:07.102Z,72.50
2024-02-02T23:03:13.381Z,73.38
2024-02-02T23:08:16.860Z,73.02
2024-02-02T23:13:22.496Z,71.19
2024-02-02T23:18:27.788Z,69.70
2024-02-02T23:23:38.764Z,73.83
2024-02-02T23:28:41.667Z,71.36
2024-02-02T23:33:49.895Z,71.38
2024-02-02T23:38:53.669Z,71.02
2024-02-02T23:43:57.754Z,69.20
2024-02-02T23:49:06.238Z,68.01
2024-02-02T23:54:09.377Z,67.42
2024-02-02T23:59:14.575Z,63.72
